TimeAKST,TemperatureF,Dew PointF,Humidity,Sea Level PressureIn,VisibilityMPH,Wind Direction,Wind SpeedMPH,Gust SpeedMPH,PrecipitationIn,Events,Conditions,WindDirDegrees,DateUTC
12:16 AM,26.6,24.8,93,29.33,10.0,East,10.4,-,N/A,,Overcast,90,2013-01-24 09:16:00
12:36 AM,26.6,23.0,86,29.34,10.0,Calm,Calm,-,N/A,,Overcast,0,2013-01-24 09:36:00
12:56 AM,26.6,23.0,86,29.34,10.0,East,5.8,-,N/A,,Overcast,90,2013-01-24 09:56:00
1:16 AM,26.6,23.0,86,29.34,10.0,ESE,5.8,-,N/A,,Overcast,110,2013-01-24 10:16:00
1:36 AM,26.6,24.8,93,29.35,10.0,East,3.5,-,N/A,,Overcast,80,2013-01-24 10:36:00
1:56 AM,26.6,23.0,86,29.34,10.0,East,3.5,-,N/A,,Overcast,100,2013-01-24 10:56:00
2:16 AM,26.6,24.8,93,29.35,10.0,East,3.5,-,N/A,,Overcast,100,2013-01-24 11:16:00
2:36 AM,26.6,24.8,93,29.35,10.0,East,6.9,-,N/A,,Overcast,100,2013-01-24 11:36:00
3:36 AM,24.8,21.2,86,29.36,10.0,ESE,6.9,-,N/A,,Clear,110,2013-01-24 12:36:00
3:56 AM,24.8,23.0,93,29.36,10.0,ESE,9.2,-,N/A,,Clear,110,2013-01-24 12:56:00
4:16 AM,24.8,23.0,93,29.36,10.0,East,9.2,-,N/A,,Clear,100,2013-01-24 13:16:00
4:36 AM,24.8,21.2,86,29.37,10.0,East,10.4,-,N/A,,Partly Cloudy,100,2013-01-24 13:36:00
4:56 AM,24.8,21.2,86,29.37,10.0,East,8.1,-,N/A,,Mostly Cloudy,100,2013-01-24 13:56:00
5:16 AM,24.8,23.0,93,29.38,10.0,ESE,5.8,-,N/A,,Overcast,110,2013-01-24 14:16:00
5:36 AM,24.8,23.0,93,29.39,10.0,ESE,4.6,-,N/A,,Overcast,120,2013-01-24 14:36:00
5:56 AM,24.8,21.2,86,29.39,10.0,East,4.6,-,N/A,,Overcast,90,2013-01-24 14:56:00
6:16 AM,24.8,21.2,86,29.39,10.0,East,5.8,-,N/A,,Overcast,90,2013-01-24 15:16:00
6:36 AM,24.8,21.2,86,29.40,10.0,East,9.2,-,N/A,,Overcast,100,2013-01-24 15:36:00
6:56 AM,24.8,21.2,86,29.40,10.0,East,8.1,-,N/A,,Overcast,100,2013-01-24 15:56:00
7:16 AM,24.8,21.2,86,29.41,10.0,East,9.2,-,N/A,,Overcast,100,2013-01-24 16:16:00
7:36 AM,26.6,23.0,86,29.41,10.0,ESE,8.1,-,N/A,,Overcast,110,2013-01-24 16:36:00
7:56 AM,26.6,23.0,86,29.42,10.0,East,4.6,-,N/A,,Overcast,80,2013-01-24 16:56:00
8:16 AM,24.8,21.2,86,29.44,10.0,Calm,Calm,-,N/A,,Overcast,0,2013-01-24 17:16:00
8:36 AM,24.8,21.2,86,29.44,10.0,Calm,Calm,-,N/A,,Mostly Cloudy,0,2013-01-24 17:36:00
8:56 AM,23.0,21.2,93,29.45,10.0,Calm,Calm,-,N/A,,Mostly Cloudy,0,2013-01-24 17:56:00
9:16 AM,21.2,19.4,93,29.46,10.0,East,5.8,-,N/A,,Partly Cloudy,80,2013-01-24 18:16:00
9:36 AM,21.2,19.4,93,29.46,10.0,East,4.6,-,N/A,,Clear,80,2013-01-24 18:36:00
9:56 AM,19.4,15.8,86,29.47,10.0,SSE,3.5,-,N/A,,Clear,150,2013-01-24 18:56:00
10:16 AM,19.4,19.4,100,29.47,10.0,East,5.8,-,N/A,,Clear,80,2013-01-24 19:16:00
10:36 AM,19.4,17.6,93,29.47,10.0,East,5.8,-,N/A,,Mostly Cloudy,90,2013-01-24 19:36:00
10:56 AM,21.2,19.4,93,29.47,10.0,East,5.8,-,N/A,,Mostly Cloudy,80,2013-01-24 19:56:00
11:16 AM,23.0,21.2,93,29.47,10.0,East,5.8,-,N/A,,Partly Cloudy,80,2013-01-24 20:16:00
11:36 AM,23.0,19.4,86,29.48,10.0,East,6.9,-,N/A,,Clear,90,2013-01-24 20:36:00
11:56 AM,26.6,23.0,86,29.48,10.0,ENE,4.6,-,N/A,,Clear,70,2013-01-24 20:56:00
12:16 PM,24.8,19.4,80,29.48,10.0,East,4.6,-,N/A,,Clear,80,2013-01-24 21:16:00
12:36 PM,26.6,24.8,93,29.48,10.0,Calm,Calm,-,N/A,,Clear,0,2013-01-24 21:36:00
12:56 PM,26.6,23.0,86,29.48,10.0,Calm,Calm,-,N/A,,Clear,0,2013-01-24 21:56:00
1:16 PM,26.6,24.8,93,29.49,10.0,Calm,Calm,-,N/A,,Clear,0,2013-01-24 22:16:00
1:36 PM,30.2,26.6,86,29.48,10.0,Calm,Calm,-,N/A,,Clear,0,2013-01-24 22:36:00
1:56 PM,30.2,26.6,86,29.48,10.0,Calm,Calm,-,N/A,,Clear,0,2013-01-24 22:56:00
2:16 PM,30.2,26.6,86,29.47,10.0,Calm,Calm,-,N/A,,Clear,0,2013-01-24 23:16:00
2:36 PM,28.4,23.0,80,29.47,10.0,Calm,Calm,-,N/A,,Clear,0,2013-01-24 23:36:00
2:56 PM,30.2,24.8,80,29.47,10.0,Calm,Calm,-,N/A,,Clear,0,2013-01-24 23:56:00
3:16 PM,32.0,28.4,87,29.46,10.0,Calm,Calm,-,N/A,,Clear,0,2013-01-25 00:16:00
3:36 PM,32.0,28.4,87,29.46,10.0,East,3.5,-,N/A,,Clear,90,2013-01-25 00:36:00
3:56 PM,30.2,26.6,86,29.46,10.0,South,4.6,-,N/A,,Clear,180,2013-01-25 00:56:00
4:16 PM,33.8,30.2,87,29.46,10.0,South,5.8,-,N/A,,Clear,190,2013-01-25 01:16:00
4:36 PM,35.6,30.2,81,29.46,10.0,South,5.8,-,N/A,,Clear,180,2013-01-25 01:36:00
4:56 PM,33.8,28.4,81,29.45,10.0,South,5.8,-,N/A,,Clear,180,2013-01-25 01:56:00
5:16 PM,33.8,28.4,81,29.46,10.0,South,6.9,-,N/A,,Clear,190,2013-01-25 02:16:00
5:36 PM,33.8,28.4,81,29.46,10.0,South,6.9,-,N/A,,Clear,190,2013-01-25 02:36:00
5:56 PM,33.8,28.4,81,29.45,10.0,South,6.9,-,N/A,,Clear,190,2013-01-25 02:56:00
6:16 PM,33.8,28.4,81,29.45,10.0,South,5.8,-,N/A,,Clear,190,2013-01-25 03:16:00
6:36 PM,33.8,28.4,81,29.45,10.0,South,6.9,-,N/A,,Clear,190,2013-01-25 03:36:00
6:56 PM,33.8,28.4,81,29.45,10.0,South,6.9,-,N/A,,Clear,180,2013-01-25 03:56:00
7:16 PM,33.8,28.4,81,29.44,10.0,South,8.1,-,N/A,,Clear,170,2013-01-25 04:16:00
7:36 PM,33.8,28.4,81,29.44,10.0,South,6.9,-,N/A,,Clear,170,2013-01-25 04:36:00
7:56 PM,33.8,28.4,81,29.43,10.0,South,4.6,-,N/A,,Clear,170,2013-01-25 04:56:00
8:16 PM,33.8,26.6,75,29.43,10.0,SSE,5.8,-,N/A,,Clear,160,2013-01-25 05:16:00
8:36 PM,33.8,28.4,81,29.43,10.0,SSE,5.8,-,N/A,,Clear,150,2013-01-25 05:36:00
8:56 PM,32.0,28.4,87,29.42,10.0,SE,3.5,-,N/A,,Clear,140,2013-01-25 05:56:00
9:16 PM,33.8,28.4,81,29.42,10.0,South,8.1,-,N/A,,Mostly Cloudy,170,2013-01-25 06:16:00
9:36 PM,33.8,28.4,81,29.41,10.0,South,9.2,-,N/A,,Mostly Cloudy,190,2013-01-25 06:36:00
9:56 PM,33.8,28.4,81,29.41,10.0,South,10.4,17.3,N/A,,Mostly Cloudy,190,2013-01-25 06:56:00
10:16 PM,33.8,28.4,81,29.40,10.0,South,12.7,16.1,N/A,,Overcast,180,2013-01-25 07:16:00
10:36 PM,33.8,28.4,81,29.39,10.0,South,9.2,18.4,N/A,,Overcast,180,2013-01-25 07:36:00
10:56 PM,33.8,28.4,81,29.39,10.0,South,11.5,-,N/A,,Overcast,180,2013-01-25 07:56:00
11:16 PM,33.8,28.4,81,29.38,10.0,South,8.1,-,N/A,,Overcast,190,2013-01-25 08:16:00
11:36 PM,35.6,28.4,75,29.38,10.0,South,9.2,-,N/A,,Overcast,180,2013-01-25 08:36:00
11:56 PM,35.6,28.4,75,29.37,10.0,SW,9.2,-,N/A,,Overcast,220,2013-01-25 08:56:00